LFMV

Avignon-Caumont Airport

Avignon/Caumont, France
TAF LFMV 240800Z 2409/2509 35025G35KT CAVOK TEMPO 2409/2417 35030G45KT BECMG 2418/2419 BKN050 BECMG 2500/2502 35015G25KT PROB30 TEMPO 2503/2507 -RA SCT033 BECMG 2507/2509 35012KT CAVOK
Issued Valid From Valid To
Sep-24 @ 08:00 UTC
(6 hours ago)
Sep-24 @ 09:00 UTC
(5 hours ago)
Sep-25 @ 09:00 UTC
(in 19 hours)
Sep-24 @ 09:00 to Sep-24 @ 18:00
TAF LFMV 240800Z 2409/2509 35025G35KT CAVOK
Wind Visibility Clouds Conditions
350° at 25 knots
 Gusting to 35 knots
10,000+ meters
  • No significant clouds
Temporary Sep-24 @ 09:00 to Sep-24 @ 17:00
TEMPO 2409/2417 35030G45KT
Wind
350° at 30 knots
 Gusting to 45 knots
Becoming Sep-24 @ 18:00 to Sep-25 @ 00:00
BECMG 2418/2419 BKN050
Wind Visibility Clouds Conditions
350° at 25 knots
 Gusting to 35 knots
10,000+ meters
  • Broken at 5,000' AGL
Becoming Sep-25 @ 00:00 to Sep-25 @ 07:00
BECMG 2500/2502 35015G25KT
Wind Visibility Clouds Conditions
350° at 15 knots
 Gusting to 25 knots
10,000+ meters
  • Broken at 5,000' AGL
Temporary  (Probability 30%) Sep-25 @ 03:00 to Sep-25 @ 07:00
PROB30 TEMPO 2503/2507 -RA SCT033
Clouds Conditions
  • Scattered at 3,300' AGL
  • Light Rain
Becoming Sep-25 @ 07:00 to Sep-25 @ 09:00
BECMG 2507/2509 35012KT CAVOK
Wind Visibility Clouds Conditions
350° at 12 knots 10,000+ meters
  • No significant clouds
TAF LFMV 240800Z 2409/2509 35025G35KT CAVOK TEMPO 2409/2417 35030G45KT BECMG 2418/2419 BKN050 BECMG 2500/2502 35015G25KT PROB30 TEMPO 2503/2507 -RA SCT033 BECMG 2507/2509 35012KT CAVOK
Issued Sep-24 @ 08:00 UTC
(6 hours ago)
Valid From Sep-24 @ 09:00 UTC
(5 hours ago)
Valid To Sep-25 @ 09:00 UTC
(in 19 hours)
Sep-24 @ 09:00 - Sep-24 @ 18:00
Wind Visibility
350° at 25 knots
 Gusting to 35 knots
10,000+ meters
Clouds
  • No significant clouds
Conditions
Temporary Sep-24 @ 09:00 - Sep-24 @ 17:00
Wind
350° at 30 knots
 Gusting to 45 knots
Becoming Sep-24 @ 18:00 - Sep-25 @ 00:00
Wind Visibility
350° at 25 knots
 Gusting to 35 knots
10,000+ meters
Clouds
  • Broken at 5,000' AGL
Conditions
Becoming Sep-25 @ 00:00 - Sep-25 @ 07:00
Wind Visibility
350° at 15 knots
 Gusting to 25 knots
10,000+ meters
Clouds
  • Broken at 5,000' AGL
Conditions
Probability 30% Temporary Sep-25 @ 03:00 - Sep-25 @ 07:00
Clouds
  • Scattered at 3,300' AGL
Conditions
  • Light Rain
Becoming Sep-25 @ 07:00 - Sep-25 @ 09:00
Wind Visibility
350° at 12 knots 10,000+ meters
Clouds
  • No significant clouds
Conditions